Flight Track Log - Related Links

Times and Time Zones

All times are in EDT time to prevent confusion due to time zone crossing. See the N1817Z flight status page for this flight to view local times or setup timezone preferences in your user account.

Time Position Orientation Groundspeed Altitude Reporting Facility
EDT Latitude Longitude Course Direction KTS MPH feet Rate Location/Type
Sun 10:14:07 AM 28.5500 -81.3167 360° North 107 123 400  Level Orlando TRACON
Sun 10:14:31 AM 28.5667 -81.3167 360° North 115 132 600 429 Climbing Orlando TRACON
Sun 10:15:31 AM 28.5833 -81.3500 300° West 123 142 1,000 198 Climbing Orlando TRACON
Sun 10:16:32 AM 28.6167 -81.3833 319° Northwest 148 170 1,000 50 Level Orlando TRACON
Sun 10:17:32 AM 28.6500 -81.4167 319° Northwest 158 182 1,100 350 Climbing Orlando TRACON
Sun 10:18:32 AM 28.6667 -81.4500 300° West 129 148 1,700 571 Climbing Orlando TRACON
Sun 10:19:38 AM 28.7000 -81.4833 319° Northwest 121 139 2,300 571 Climbing Orlando TRACON
Sun 10:20:38 AM 28.7333 -81.5000 336° Northwest 127 146 2,900 600 Climbing Orlando TRACON
Sun 10:21:38 AM 28.7500 -81.5333 300° West 131 151 3,500 632 Climbing Orlando TRACON
Sun 10:22:32 AM 28.7833 -81.5667 319° Northwest 124 143 4,100 579 Climbing Orlando TRACON
Sun 10:23:32 AM 28.8000 -81.5833 319° Northwest 120 138 4,600 446 Climbing Orlando TRACON
Sun 10:24:33 AM 28.8333 -81.6167 319° Northwest 121 139 5,000 418 Climbing Orlando TRACON
Sun 10:26:53 AM 28.8872 -81.6831 313° West 132 152 6,000 420 Climbing Jacksonville Center
Sun 10:27:53 AM 28.9167 -81.7067 325° Northwest 128 147 6,400 408 Climbing Jacksonville Center
Sun 10:28:36 AM 28.9356 -81.7231 323° Northwest 129 148 6,700 404 Climbing Jacksonville Center
Sun 10:29:37 AM 28.9672 -81.7511 322° Northwest 133 153 7,100 422 Climbing Jacksonville Center
Sun 10:30:44 AM 29.0008 -81.7792 324° Northwest 134 154 7,600 422 Climbing Jacksonville Center
Sun 10:31:45 AM 29.0303 -81.8050 323° Northwest 132 152 8,000 393 Climbing Jacksonville Center
Sun 10:32:46 AM 29.0617 -81.8189 339° North 130 150 8,400 246 Climbing Jacksonville Center
Sun 10:33:47 AM 29.1036 -81.8303 347° North 148 170 8,500 49 Climbing Jacksonville Center
Sun 10:34:48 AM 29.1453 -81.8511 336° Northwest 162 186 8,500  Level Jacksonville Center
Sun 10:35:55 AM 29.1894 -81.8722 337° Northwest 165 190 8,500  Level Jacksonville Center
Sun 10:36:50 AM 29.2314 -81.8883 341° North 168 193 8,500  Level Jacksonville Center
Sun 10:37:51 AM 29.2772 -81.9044 343° North 167 192 8,500  Level Jacksonville Center
Sun 10:38:52 AM 29.3214 -81.9256 337° Northwest 167 192 8,500  Level Jacksonville Center
Sun 10:39:53 AM 29.3653 -81.9442 340° North 168 193 8,500  Level Jacksonville Center
Sun 10:41:00 AM 29.4156 -81.9628 342° North 169 194 8,500  Level Jacksonville Center
Sun 10:42:01 AM 29.4575 -81.9792 341° North 162 186 8,500  Level Jacksonville Center
Sun 10:42:56 AM 29.4972 -81.9956 340° North 154 177 8,500 -52 Level Jacksonville Center
Sun 10:43:57 AM 29.5392 -82.0142 339° North 159 183 8,400 -49 Descending Jacksonville Center
Sun 10:44:58 AM 29.5789 -82.0306 340° North 158 182 8,400  Level Jacksonville Center
Sun 10:45:59 AM 29.6247 -82.0467 343° North 159 183 8,400  Level Jacksonville Center
Sun 10:47:00 AM 29.6647 -82.0633 340° North 156 180 8,400  Level Jacksonville Center
Sun 10:48:01 AM 29.7064 -82.0844 336° Northwest 156 180 8,400  Level Jacksonville Center
Sun 10:49:02 AM 29.7483 -82.1008 341° North 156 180 8,400  Level Jacksonville Center
Sun 10:49:57 AM 29.7861 -82.1147 342° North 158 182 8,400  Level Jacksonville Center
Sun 10:51:03 AM 29.8300 -82.1311 342° North 155 178 8,400  Level Jacksonville Center
Sun 10:51:59 AM 29.8678 -82.1478 339° North 156 180 8,400  Level Jacksonville Center
Sun 10:53:00 AM 29.9075 -82.1664 338° Northwest 154 177 8,400  Level Jacksonville Center
Sun 10:54:06 AM 29.9536 -82.1878 338° Northwest 155 178 8,400  Level Jacksonville Center
Sun 10:55:07 AM 29.9994 -82.2067 340° North 155 178 8,400  Level Jacksonville Center
Sun 10:56:08 AM 30.0392 -82.2208 343° North 155 178 8,400  Level Jacksonville Center
Sun 10:57:07 AM 30.0747 -82.2350 341° North 160 184 8,400  Level Jacksonville Center
Sun 10:58:07 AM 30.1147 -82.2539 338° Northwest 160 184 8,400 50 Level Jacksonville Center
Sun 10:59:08 AM 30.1544 -82.2703 340° North 154 177 8,500 50 Climbing Jacksonville Center
Sun 11:00:08 AM 30.1942 -82.2844 343° North 148 170 8,500  Level Jacksonville Center
Sun 11:01:08 AM 30.2339 -82.3011 340° North 148 170 8,500  Level Jacksonville Center
Sun 11:02:08 AM 30.2736 -82.3200 338° Northwest 148 170 8,500  Level Jacksonville Center
Sun 11:03:07 AM 30.3133 -82.3392 337° Northwest 148 170 8,500  Level Jacksonville Center
Sun 11:04:08 AM 30.3531 -82.3533 343° North 148 170 8,500  Level Jacksonville Center
Sun 11:05:07 AM 30.3928 -82.3700 340° North 148 170 8,500  Level Jacksonville Center
Sun 11:06:07 AM 30.4325 -82.3867 340° North 148 170 8,500  Level Jacksonville Center
Sun 11:07:07 AM 30.4703 -82.4058 336° Northwest 148 170 8,500  Level Jacksonville Center
Sun 11:08:07 AM 30.5119 -82.4225 341° North 148 170 8,500  Level Jacksonville Center
Sun 11:09:07 AM 30.5475 -82.4367 341° North 148 170 8,500  Level Jacksonville Center
Sun 11:10:07 AM 30.5872 -82.4558 337° Northwest 148 170 8,500  Level Jacksonville Center
Sun 11:11:07 AM 30.6269 -82.4725 340° North 148 170 8,500  Level Jacksonville Center
Sun 11:12:08 AM 30.6667 -82.4892 340° North 148 170 8,500  Level Jacksonville Center
Sun 11:13:07 AM 30.7064 -82.5061 340° North 148 170 8,500  Level Jacksonville Center
Sun 11:14:08 AM 30.7442 -82.5253 336° Northwest 148 170 8,500  Level Jacksonville Center
Sun 11:15:07 AM 30.7858 -82.5394 344° North 148 170 8,500  Level Jacksonville Center
Sun 11:16:07 AM 30.8236 -82.5564 339° North 148 170 8,500  Level Jacksonville Center
Sun 11:17:08 AM 30.8653 -82.5756 338° Northwest 148 170 8,500  Level Jacksonville Center
Sun 11:18:07 AM 30.9050 -82.5922 340° North 148 170 8,500  Level Jacksonville Center
Sun 11:19:07 AM 30.9469 -82.6092 341° North 148 170 8,500  Level Jacksonville Center
Sun 11:20:08 AM 30.9867 -82.6283 338° Northwest 153 176 8,500  Level Jacksonville Center
Sun 11:21:07 AM 31.0283 -82.6453 341° North 153 176 8,500  Level Jacksonville Center
Sun 11:22:07 AM 31.0703 -82.6622 341° North 153 176 8,500  Level Jacksonville Center
Sun 11:23:08 AM 31.1142 -82.6814 340° North 158 182 8,500  Level Jacksonville Center
Sun 11:24:08 AM 31.1642 -82.7008 342° North 171 197 8,500  Level Jacksonville Center
Sun 11:25:07 AM 31.2081 -82.7200 340° North 176 203 8,500  Level Jacksonville Center
Sun 11:26:07 AM 31.2542 -82.7419 338° Northwest 176 203 8,500  Level Jacksonville Center
Sun 11:27:08 AM 31.3000 -82.7636 338° Northwest 170 196 8,500  Level Jacksonville Center
Sun 11:28:07 AM 31.3458 -82.7806 342° North 170 196 8,500  Level Jacksonville Center
Sun 11:29:08 AM 31.3856 -82.8000 337° Northwest 170 196 8,500  Level Jacksonville Center
Sun 11:30:08 AM 31.4294 -82.8147 344° North 170 196 8,500  Level Jacksonville Center
Sun 11:31:07 AM 31.4714 -82.8367 336° Northwest 165 190 8,500  Level Jacksonville Center
Sun 11:32:08 AM 31.5131 -82.8536 341° North 160 184 8,500  Level Jacksonville Center
Sun 11:33:08 AM 31.5547 -82.8731 338° Northwest 160 184 8,500  Level Jacksonville Center
Sun 11:34:07 AM 31.5967 -82.8878 343° North 160 184 8,500  Level Jacksonville Center
Sun 11:35:07 AM 31.6383 -82.9072 338° Northwest 155 178 8,500  Level Jacksonville Center
Sun 11:36:07 AM 31.6781 -82.9267 337° Northwest 155 178 8,500  Level Jacksonville Center
Sun 11:37:07 AM 31.7197 -82.9439 341° North 155 178 8,500  Level Jacksonville Center
Sun 11:38:08 AM 31.7614 -82.9633 338° Northwest 155 178 8,500  Level Jacksonville Center
Sun 11:39:07 AM 31.8033 -82.9806 341° North 155 178 8,500  Level Jacksonville Center
Sun 11:40:07 AM 31.8450 -83.0003 338° Northwest 155 178 8,500  Level Jacksonville Center
Sun 11:41:08 AM 31.8847 -83.0172 340° North 155 178 8,500  Level Jacksonville Center
Sun 11:42:08 AM 31.9264 -83.0369 338° Northwest 155 178 8,500  Level Jacksonville Center
Sun 11:43:07 AM 31.9681 -83.0542 341° North 155 178 8,500  Level Jacksonville Center
Sun 11:44:07 AM 32.0097 -83.0714 341° North 155 178 8,500  Level Jacksonville Center
Sun 11:45:07 AM 32.0517 -83.0886 341° North 155 178 8,500  Level Jacksonville Center
Sun 11:46:08 AM 32.0911 -83.1083 337° Northwest 155 178 8,500  Level Jacksonville Center
Sun 11:47:08 AM 32.1308 -83.1256 340° North 155 178 8,500  Level Jacksonville Center
Sun 11:48:53 AM 32.2167 -83.1667 338° Northwest 163 188 8,500  Level Atlanta TRACON
Sun 11:49:53 AM 32.2500 -83.1833 337° Northwest 160 184 8,500  Level Atlanta TRACON
Sun 11:50:59 AM 32.3000 -83.2000 344° North 160 184 8,500 -100 Level Atlanta TRACON
Sun 11:51:53 AM 32.3333 -83.2167 337° Northwest 164 189 8,300 -53 Descending Atlanta TRACON
Sun 11:52:53 AM 32.3833 -83.2167 360° North 154 177 8,400 50 Climbing Atlanta TRACON
Sun 11:53:53 AM 32.4167 -83.2500 320° Northwest 153 176 8,400 -143 Level Atlanta TRACON
Sun 11:54:59 AM 32.4667 -83.2667 344° North 167 192 8,100 -238 Descending Atlanta TRACON
Sun 11:55:59 AM 32.5167 -83.2833 344° North 169 194 7,900 -200 Descending Atlanta TRACON
Sun 11:56:59 AM 32.5500 -83.3000 337° Northwest 169 194 7,700 -250 Descending Atlanta TRACON
Sun 11:57:59 AM 32.6000 -83.3167 344° North 168 193 7,400 -238 Descending Atlanta TRACON
Sun 11:59:05 AM 32.6500 -83.3333 344° North 168 193 7,200 -200 Descending Atlanta TRACON
Sun 11:59:59 AM 32.6833 -83.3667 320° Northwest 165 190 7,000 -200 Descending Atlanta TRACON
Sun 12:01:05 PM 32.7333 -83.3833 344° North 165 190 6,800 -250 Descending Atlanta TRACON
Sun 12:01:59 PM 32.7667 -83.4000 337° Northwest 168 193 6,500 -158 Descending Atlanta TRACON
Sun 12:02:59 PM 32.8167 -83.4167 344° North 159 183 6,500  Level Atlanta TRACON
Sun 12:03:59 PM 32.8500 -83.4333 337° Northwest 155 178 6,500  Level Atlanta TRACON
Sun 12:04:59 PM 32.8833 -83.4500 337° Northwest 156 180 6,500  Level Atlanta TRACON
Sun 12:05:53 PM 32.9333 -83.4667 344° North 157 181 6,500  Level Atlanta TRACON
Sun 12:06:59 PM 32.9667 -83.4833 337° Northwest 156 180 6,500  Level Atlanta TRACON
Sun 12:07:59 PM 33.0167 -83.5000 344° North 156 180 6,500  Level Atlanta TRACON
Sun 12:08:59 PM 33.0500 -83.5167 337° Northwest 156 180 6,500  Level Atlanta TRACON
Sun 12:09:59 PM 33.0833 -83.5500 320° Northwest 158 182 6,500  Level Atlanta TRACON
Sun 12:10:59 PM 33.1333 -83.5833 331° Northwest 157 181 6,500  Level Atlanta TRACON
Sun 12:11:59 PM 33.1667 -83.6000 337° Northwest 158 182 6,500 -100 Level Atlanta TRACON
Sun 12:12:59 PM 33.2167 -83.6167 344° North 163 188 6,300 -150 Descending Atlanta TRACON
Sun 12:13:59 PM 33.2500 -83.6333 337° Northwest 168 193 6,200 -150 Descending Atlanta TRACON
Sun 12:14:59 PM 33.3000 -83.6667 331° Northwest 168 193 6,000 -150 Descending Atlanta TRACON
Sun 12:15:59 PM 33.3333 -83.6833 337° Northwest 165 190 5,900 -150 Descending Atlanta TRACON
Sun 12:16:59 PM 33.3833 -83.7000 344° North 174 200 5,700 -190 Descending Atlanta TRACON
Sun 12:18:05 PM 33.4333 -83.7333 331° Northwest 170 196 5,500 -136 Descending Atlanta TRACON
Sun 12:19:11 PM 33.4833 -83.7500 344° North 169 194 5,400 -143 Descending Atlanta TRACON
Sun 12:20:11 PM 33.5167 -83.7667 337° Northwest 169 194 5,200 -150 Descending Atlanta TRACON
Sun 12:21:11 PM 33.5667 -83.7833 344° North 172 198 5,100 -211 Descending Atlanta TRACON
Sun 12:22:05 PM 33.6000 -83.8000 337° Northwest 172 198 4,800 -444 Descending Atlanta TRACON
Sun 12:22:59 PM 33.6500 -83.8167 344° North 183 211 4,300 -650 Descending Atlanta TRACON
Sun 12:24:05 PM 33.7000 -83.8333 345° North 194 223 3,500 -613 Descending Atlanta TRACON
Sun 12:26:05 PM 33.8000 -83.8833 337° Northwest 189 217 2,400 -367 Descending Atlanta TRACON
Sun 12:27:05 PM 33.8500 -83.9000 345° North 163 188 2,400  Level Atlanta TRACON
Sun 12:28:05 PM 33.9000 -83.9167 345° North 163 188 2,400 -100 Level Atlanta TRACON
Sun 12:29:05 PM 33.9333 -83.9333 337° Northwest 147 169 2,200 -250 Descending Atlanta TRACON
Sun 12:30:05 PM 33.9667 -83.9167 23° Northeast 120 138 1,900 -300 Descending Atlanta TRACON
Sun 12:32:00 PM 33.9667 -83.9500 North  Level FlightAware Approximate
Sun 12:39:00 PM 33.9781 -83.9624 North  Level Estimated
Sun 12:40:00 PM 33.9781 -83.9624 North  Level Estimated

Login

Don't have an account? Register now (free) for customized features, flight alerts, and more!